createdAt,value
2023-02-05T00:02:07.234Z,5
2023-02-05T00:05:09.177Z,4.6
2023-02-05T00:08:11.150Z,4.5
2023-02-05T00:11:13.094Z,4.6
2023-02-05T00:14:15.099Z,4.5
2023-02-05T00:17:17.010Z,4.3
2023-02-05T00:20:18.977Z,4.4
2023-02-05T00:23:20.952Z,3.8
2023-02-05T00:26:22.888Z,4.2
2023-02-05T00:29:24.861Z,4.5
2023-02-05T00:32:26.832Z,4.4
2023-02-05T00:35:28.802Z,4.5
2023-02-05T00:38:30.756Z,3.8
2023-02-05T00:41:32.723Z,3.8
2023-02-05T00:44:34.685Z,3.9
2023-02-05T00:47:36.652Z,3.5
2023-02-05T00:50:38.612Z,3.7
2023-02-05T00:53:40.699Z,3.5
2023-02-05T00:56:42.651Z,4.2
2023-02-05T00:59:44.617Z,4
2023-02-05T01:02:46.682Z,3.7
2023-02-05T01:05:48.537Z,4
2023-02-05T01:08:50.490Z,4.1
2023-02-05T01:11:52.469Z,4.9
2023-02-05T01:14:54.418Z,4.5
2023-02-05T01:17:56.391Z,4.6
2023-02-05T01:20:58.354Z,4.8
2023-02-05T01:24:00.314Z,5
2023-02-05T01:27:02.293Z,5.1
2023-02-05T01:30:04.254Z,4.8
2023-02-05T01:33:06.219Z,4.3
2023-02-05T01:36:08.171Z,4
2023-02-05T01:39:10.130Z,4
2023-02-05T01:42:12.101Z,4.3
2023-02-05T01:45:14.053Z,4.8
2023-02-05T01:48:16.020Z,4.6
2023-02-05T01:51:17.991Z,4.2
2023-02-05T01:54:19.937Z,4.4
2023-02-05T01:57:21.878Z,4
2023-02-05T02:00:23.849Z,4.2
2023-02-05T02:03:25.811Z,4.7
2023-02-05T02:06:27.754Z,3.7
2023-02-05T02:09:29.726Z,4.7
2023-02-05T02:12:31.697Z,4.3
2023-02-05T02:15:33.890Z,3.9
2023-02-05T02:18:35.607Z,4
2023-02-05T02:21:37.575Z,3.8
2023-02-05T02:24:39.518Z,4.2
2023-02-05T02:27:41.536Z,4.2
2023-02-05T02:30:43.471Z,3.4
2023-02-05T02:33:45.414Z,4.4
2023-02-05T02:36:47.378Z,4.5
2023-02-05T02:39:49.322Z,3.7
2023-02-05T02:42:51.275Z,3.7
2023-02-05T02:45:53.231Z,3.7
2023-02-05T02:48:56.735Z,3.5
2023-02-05T02:51:57.213Z,3.9
2023-02-05T02:54:59.142Z,4.2
2023-02-05T02:58:01.109Z,4
2023-02-05T03:01:03.110Z,3.4
2023-02-05T03:04:05.033Z,4
2023-02-05T03:07:06.996Z,3.5
2023-02-05T03:10:08.956Z,3.3
2023-02-05T03:13:10.910Z,3.6
2023-02-05T03:16:12.918Z,3.8
2023-02-05T03:19:14.817Z,3.5
2023-02-05T03:22:16.812Z,3.4
2023-02-05T03:25:18.747Z,3.3
2023-02-05T03:28:20.718Z,3.4
2023-02-05T03:31:22.710Z,3.2
2023-02-05T03:34:24.638Z,4
2023-02-05T03:37:26.599Z,3.3
2023-02-05T03:40:28.538Z,3.5
2023-02-05T03:43:30.511Z,4
2023-02-05T03:46:32.470Z,3.1
2023-02-05T03:49:34.635Z,3.2
2023-02-05T03:52:36.427Z,4
2023-02-05T03:55:38.362Z,3.6
2023-02-05T03:58:40.318Z,4.2
2023-02-05T04:01:42.296Z,3.8
2023-02-05T04:04:44.234Z,3.9
2023-02-05T04:07:46.219Z,4.3
2023-02-05T04:10:48.169Z,4
2023-02-05T04:13:50.143Z,4.2
2023-02-05T04:16:52.105Z,3.9
2023-02-05T04:19:54.059Z,4.2
2023-02-05T04:22:56.040Z,3.7
2023-02-05T04:25:57.984Z,3.9
2023-02-05T04:28:59.926Z,3.9
2023-02-05T04:32:01.899Z,3.6
2023-02-05T04:35:03.853Z,3.4
2023-02-05T04:38:05.795Z,3.9
2023-02-05T04:41:07.756Z,3.7
2023-02-05T04:44:09.720Z,3.9
2023-02-05T04:47:11.693Z,4
2023-02-05T04:50:13.630Z,3.7
2023-02-05T04:53:15.607Z,3.5
2023-02-05T04:56:17.577Z,3.2
2023-02-05T04:59:19.522Z,2.9
2023-02-05T05:02:21.525Z,3.9
2023-02-05T05:05:23.432Z,3.5
2023-02-05T05:08:25.417Z,3.6
2023-02-05T05:11:27.359Z,3.6
2023-02-05T05:14:29.315Z,3.6
2023-02-05T05:17:31.273Z,4.3
2023-02-05T05:20:33.245Z,3.4
2023-02-05T05:23:35.203Z,3.9
2023-02-05T05:26:37.175Z,3.6
2023-02-05T05:29:39.152Z,3.8
2023-02-05T05:32:41.102Z,3.7
2023-02-05T05:35:43.044Z,3.6
2023-02-05T05:38:45.035Z,3.8
2023-02-05T05:41:46.992Z,3.9
2023-02-05T05:44:48.940Z,4
2023-02-05T05:47:50.916Z,4.4
2023-02-05T05:50:52.849Z,4.3
2023-02-05T05:53:54.845Z,4.3
2023-02-05T05:56:56.788Z,4.6
2023-02-05T05:59:58.728Z,4.5
2023-02-05T06:03:00.692Z,4.3
2023-02-05T06:06:02.640Z,5.5
2023-02-05T06:09:04.812Z,5
2023-02-05T06:12:06.558Z,4.4
2023-02-05T06:15:08.513Z,4.7
2023-02-05T06:18:10.483Z,5.1
2023-02-05T06:21:12.468Z,5
2023-02-05T06:24:14.415Z,5
2023-02-05T06:27:16.378Z,5.4
2023-02-05T06:30:18.348Z,5.2
2023-02-05T06:33:20.303Z,5
2023-02-05T06:36:22.264Z,5.8
2023-02-05T06:39:25.219Z,6.4
2023-02-05T06:42:26.200Z,6.4
2023-02-05T06:45:28.162Z,7.1
2023-02-05T06:48:30.133Z,7.2
2023-02-05T06:51:32.110Z,6.5
2023-02-05T06:54:34.047Z,5.9
2023-02-05T06:57:36.022Z,6.3
2023-02-05T07:00:37.995Z,6
2023-02-05T07:03:39.952Z,5.6
2023-02-05T07:06:41.926Z,6.1
2023-02-05T07:09:43.873Z,6.2
2023-02-05T07:12:45.833Z,7.3
2023-02-05T07:15:47.982Z,6.4
2023-02-05T07:18:49.733Z,6.7
2023-02-05T07:21:51.718Z,7.4
2023-02-05T07:24:53.658Z,8.2
2023-02-05T07:27:55.698Z,6.7
2023-02-05T07:31:00.000Z,8.3
2023-02-05T07:33:59.553Z,8.7
2023-02-05T07:37:01.531Z,8.4
2023-02-05T07:40:03.459Z,8.4
2023-02-05T07:43:05.417Z,8
2023-02-05T07:46:07.405Z,9.6
2023-02-05T07:49:09.351Z,9.5
2023-02-05T07:52:11.319Z,8.1
2023-02-05T07:55:13.274Z,10.3
2023-02-05T07:58:15.225Z,9.4
2023-02-05T08:01:17.280Z,8.2
2023-02-05T08:04:19.226Z,9.9
2023-02-05T08:07:21.160Z,10
2023-02-05T08:10:23.123Z,9.9
2023-02-05T08:13:25.081Z,8.5
2023-02-05T08:16:27.119Z,9.9
2023-02-05T08:19:29.010Z,11.1
2023-02-05T08:22:30.977Z,9.6
2023-02-05T08:25:33.184Z,9.1
2023-02-05T08:28:35.016Z,10.5
2023-02-05T08:31:36.943Z,9.7
2023-02-05T08:34:38.828Z,10.4
2023-02-05T08:37:40.799Z,11.7
2023-02-05T08:40:42.753Z,10.1
2023-02-05T08:43:44.690Z,9.2
2023-02-05T08:46:49.980Z,9.7
2023-02-05T08:49:48.643Z,11.6
2023-02-05T08:52:50.595Z,9.1
2023-02-05T08:55:52.547Z,9.1
2023-02-05T08:58:54.495Z,8.3
2023-02-05T09:01:56.479Z,10
2023-02-05T09:05:07.890Z,9
2023-02-05T09:08:00.397Z,9.4
2023-02-05T09:11:02.328Z,10.7
2023-02-05T09:14:04.298Z,9.9
2023-02-05T09:17:06.270Z,11.1
2023-02-05T09:20:08.222Z,9.8
2023-02-05T09:23:10.210Z,9.6
2023-02-05T09:26:12.168Z,11.9
2023-02-05T09:29:14.129Z,10.9
2023-02-05T09:32:16.107Z,11
2023-02-05T09:35:18.069Z,11.9
2023-02-05T09:38:20.019Z,9.8
2023-02-05T09:41:21.975Z,11.9
2023-02-05T09:44:23.944Z,10.4
2023-02-05T09:47:25.972Z,12.1
2023-02-05T09:50:27.852Z,11.5
2023-02-05T09:53:29.834Z,11.7
2023-02-05T09:56:31.786Z,14
2023-02-05T09:59:33.732Z,11.7
2023-02-05T10:02:35.695Z,10.9
2023-02-05T10:05:37.671Z,13.1
2023-02-05T10:08:39.635Z,13.6
2023-02-05T10:11:41.594Z,12.5
2023-02-05T10:14:43.557Z,13.8
2023-02-05T10:17:45.535Z,12.7
2023-02-05T10:20:47.482Z,12.5
2023-02-05T10:23:49.447Z,11.7
2023-02-05T10:26:51.421Z,14.6
2023-02-05T10:29:53.381Z,15
2023-02-05T10:32:55.358Z,14.3
2023-02-05T10:35:57.314Z,14.8
2023-02-05T10:38:59.249Z,14.2
2023-02-05T10:42:01.194Z,14.1
2023-02-05T10:45:03.158Z,15.2
2023-02-05T10:48:05.089Z,15.3
2023-02-05T10:51:07.051Z,14.9
2023-02-05T10:54:09.015Z,13.3
2023-02-05T10:57:10.971Z,15.1
2023-02-05T11:00:12.966Z,13
2023-02-05T11:03:14.894Z,13.2
2023-02-05T11:06:16.846Z,15.2
2023-02-05T11:09:18.815Z,14.3
2023-02-05T11:12:20.784Z,16.7
2023-02-05T11:15:22.762Z,18.9
2023-02-05T11:18:24.715Z,16.6
2023-02-05T11:21:26.662Z,16.2
2023-02-05T11:24:28.639Z,15.3
2023-02-05T11:27:30.579Z,16.5
2023-02-05T11:30:58.633Z,14
2023-02-05T11:33:34.489Z,13.3
2023-02-05T11:36:36.460Z,13
2023-02-05T11:39:38.447Z,14.9
2023-02-05T11:42:40.393Z,14.1
2023-02-05T11:45:42.352Z,14.2
2023-02-05T11:48:44.327Z,16.7
2023-02-05T11:51:46.284Z,14.6
2023-02-05T11:54:48.253Z,15.2
2023-02-05T11:57:50.226Z,15.4
2023-02-05T12:00:52.198Z,14.6
2023-02-05T12:03:54.141Z,14.5
2023-02-05T12:06:56.116Z,13.4
2023-02-05T12:09:58.072Z,14.8
2023-02-05T12:13:00.043Z,15.3
2023-02-05T12:16:02.084Z,13.9
2023-02-05T12:19:03.983Z,17.5
2023-02-05T12:22:05.941Z,15
2023-02-05T12:25:08.605Z,15.1
2023-02-05T12:28:10.008Z,13.8
2023-02-05T12:31:11.820Z,15.6
2023-02-05T12:34:13.781Z,16.6
2023-02-05T12:37:15.760Z,15.1
2023-02-05T12:40:17.708Z,14.1
2023-02-05T12:43:19.673Z,14.5
2023-02-05T12:46:21.720Z,13.3
2023-02-05T12:49:23.611Z,12.2
2023-02-05T12:52:25.599Z,13.4
2023-02-05T12:55:27.550Z,13.4
2023-02-05T12:58:29.544Z,11.6
2023-02-05T13:01:31.508Z,13.2
2023-02-05T13:04:33.461Z,13.1
2023-02-05T13:07:35.635Z,11
2023-02-05T13:10:37.392Z,11.6
2023-02-05T13:13:39.383Z,11.3
2023-02-05T13:16:41.568Z,13
2023-02-05T13:19:43.304Z,13.9
2023-02-05T13:22:45.264Z,12.6
2023-02-05T13:25:47.230Z,10.9
2023-02-05T13:28:49.189Z,11.9
2023-02-05T13:31:51.154Z,12
2023-02-05T13:34:53.132Z,13
2023-02-05T13:37:55.086Z,9.8
2023-02-05T13:40:57.082Z,11.8
2023-02-05T13:43:59.036Z,8.4
2023-02-05T13:47:01.006Z,8.4
2023-02-05T13:50:02.951Z,8.5
2023-02-05T13:53:04.950Z,6.9
2023-02-05T13:56:06.918Z,6.5
2023-02-05T13:59:08.884Z,7.4
2023-02-05T14:02:10.872Z,9.5
2023-02-05T14:05:12.834Z,9.5
2023-02-05T14:08:14.784Z,9.2
2023-02-05T14:11:16.782Z,9.6
2023-02-05T14:14:18.730Z,10.1
2023-02-05T14:17:20.685Z,12
2023-02-05T14:20:22.701Z,10
2023-02-05T14:23:24.762Z,10.2
2023-02-05T14:26:26.740Z,12.1
2023-02-05T14:29:28.717Z,11.1
2023-02-05T14:32:30.665Z,10.1
2023-02-05T14:35:32.832Z,12.9
2023-02-05T14:38:34.591Z,12.5
2023-02-05T14:41:36.562Z,10.8
2023-02-05T14:44:38.518Z,11
2023-02-05T14:47:40.479Z,10.1
2023-02-05T14:50:42.452Z,10.3
2023-02-05T14:53:44.404Z,10
2023-02-05T14:56:46.370Z,11.4
2023-02-05T14:59:48.331Z,9.1
2023-02-05T15:02:50.316Z,11.3
2023-02-05T15:05:52.256Z,9.7
2023-02-05T15:08:54.248Z,11.8
2023-02-05T15:11:56.193Z,9.7
2023-02-05T15:14:58.152Z,9.8
2023-02-05T15:18:00.133Z,9.2
2023-02-05T15:21:02.139Z,8.8
2023-02-05T15:24:04.117Z,9.2
2023-02-05T15:27:06.083Z,11.7
2023-02-05T15:30:08.101Z,10.7
2023-02-05T15:33:10.046Z,10
2023-02-05T15:36:12.004Z,10.7
2023-02-05T15:39:13.963Z,10.4
2023-02-05T15:42:15.925Z,10
2023-02-05T15:45:17.904Z,11.1
2023-02-05T15:48:19.850Z,9.9
2023-02-05T15:51:21.819Z,10
2023-02-05T15:54:23.788Z,11.5
2023-02-05T15:57:25.786Z,10.7
2023-02-05T16:00:27.737Z,10.7
2023-02-05T16:03:29.707Z,11.1
2023-02-05T16:06:31.655Z,12.2
2023-02-05T16:09:33.627Z,11.3
2023-02-05T16:12:35.605Z,12.2
2023-02-05T16:15:37.564Z,13.5
2023-02-05T16:18:39.555Z,12.3
2023-02-05T16:21:41.542Z,11.3
2023-02-05T16:24:43.521Z,11.7
2023-02-05T16:27:45.565Z,11.4
2023-02-05T16:30:47.454Z,11.4
2023-02-05T16:33:49.380Z,10.2
2023-02-05T16:36:51.329Z,11.5
2023-02-05T16:39:53.321Z,10.3
2023-02-05T16:42:55.294Z,10.9
2023-02-05T16:45:57.289Z,10.8
2023-02-05T16:48:59.226Z,11.5
2023-02-05T16:52:01.189Z,10.2
2023-02-05T16:55:03.188Z,10.7
2023-02-05T16:58:05.200Z,10
2023-02-05T17:01:07.170Z,9.7
2023-02-05T17:04:09.100Z,10.5
2023-02-05T17:10:13.053Z,8.9
2023-02-05T17:13:15.060Z,10.3
2023-02-05T17:16:17.182Z,12.2
2023-02-05T17:19:18.975Z,11.3
2023-02-05T17:22:20.980Z,10.3
2023-02-05T17:25:22.910Z,12
2023-02-05T17:28:24.890Z,11.8
2023-02-05T17:31:26.906Z,12.2
2023-02-05T17:34:28.809Z,12.5
2023-02-05T17:37:30.764Z,10.8
2023-02-05T17:40:33.067Z,9.5
2023-02-05T17:43:34.709Z,11.6
2023-02-05T17:46:36.705Z,9.3
2023-02-05T17:49:38.648Z,9.8
2023-02-05T17:52:40.608Z,10.2
2023-02-05T17:55:42.562Z,12.3
2023-02-05T17:58:44.511Z,13
2023-02-05T18:01:46.488Z,12.1
2023-02-05T18:04:48.487Z,12.4
2023-02-05T18:07:50.424Z,11.3
2023-02-05T18:10:52.360Z,10.1
2023-02-05T18:13:54.357Z,10.1
2023-02-05T18:16:56.326Z,9.2
2023-02-05T18:19:58.246Z,10
2023-02-05T18:23:00.209Z,9.5
2023-02-05T18:26:02.162Z,10.1
2023-02-05T18:29:04.116Z,10.2
2023-02-05T18:32:06.122Z,10.4
2023-02-05T18:35:08.054Z,9.8
2023-02-05T18:38:10.068Z,9.8
2023-02-05T18:41:12.000Z,9.4
2023-02-05T18:44:13.955Z,10.4
2023-02-05T18:47:16.031Z,10.5
2023-02-05T18:50:17.903Z,10
2023-02-05T18:53:19.917Z,9.5
2023-02-05T18:56:21.887Z,9.5
2023-02-05T18:59:23.794Z,10.5
2023-02-05T19:02:25.785Z,9.1
2023-02-05T19:05:27.771Z,8.9
2023-02-05T19:08:29.719Z,10
2023-02-05T19:11:31.685Z,9.8
2023-02-05T19:14:33.639Z,10.9
2023-02-05T19:17:35.611Z,9.9
2023-02-05T19:20:37.569Z,9.4
2023-02-05T19:23:39.545Z,8.9
2023-02-05T19:26:41.517Z,11.2
2023-02-05T19:29:43.479Z,9.9
2023-02-05T19:32:45.453Z,10.7
2023-02-05T19:35:47.402Z,10.6
2023-02-05T19:38:49.395Z,11.4
2023-02-05T19:41:51.337Z,11.4
2023-02-05T19:44:53.313Z,10.5
2023-02-05T19:47:55.284Z,11.2
2023-02-05T19:50:57.232Z,11.8
2023-02-05T19:53:59.192Z,10
2023-02-05T19:57:01.131Z,11.1
2023-02-05T20:00:03.142Z,11.8
2023-02-05T20:03:05.070Z,11.8
2023-02-05T20:06:07.025Z,9.8
2023-02-05T20:09:08.995Z,10.5
2023-02-05T20:12:12.727Z,10.6
2023-02-05T20:15:12.918Z,10.2
2023-02-05T20:18:14.884Z,10.6
2023-02-05T20:21:16.865Z,11.1
2023-02-05T20:24:18.828Z,9.4
2023-02-05T20:27:20.797Z,10.8
2023-02-05T20:30:22.841Z,11.2
2023-02-05T20:33:24.704Z,9.8
2023-02-05T20:36:26.690Z,10.2
2023-02-05T20:39:28.671Z,10.5
2023-02-05T20:42:30.612Z,11.4
2023-02-05T20:45:33.704Z,9.2
2023-02-05T20:48:34.543Z,9.9
2023-02-05T20:51:36.734Z,10
2023-02-05T20:54:38.462Z,10.6
2023-02-05T20:57:40.448Z,10.7
2023-02-05T21:00:42.448Z,10.1
2023-02-05T21:03:44.355Z,8.6
2023-02-05T21:06:46.338Z,8.5
2023-02-05T21:09:48.286Z,9.2
2023-02-05T21:12:50.276Z,8.5
2023-02-05T21:15:52.341Z,9.3
2023-02-05T21:18:54.186Z,9.6
2023-02-05T21:21:56.167Z,11
2023-02-05T21:24:58.146Z,10.1
2023-02-05T21:28:00.179Z,10
2023-02-05T21:31:02.164Z,10.6
2023-02-05T21:34:04.019Z,11.5
2023-02-05T21:37:05.961Z,9.8
2023-02-05T21:40:09.512Z,10.1
2023-02-05T21:43:09.869Z,9.8
2023-02-05T21:46:11.850Z,10
2023-02-05T21:49:13.793Z,11.6
2023-02-05T21:52:15.762Z,10.2
2023-02-05T21:55:17.697Z,9.6
2023-02-05T21:58:19.673Z,10.3
2023-02-05T22:01:21.693Z,9.2
2023-02-05T22:04:23.613Z,9.3
2023-02-05T22:07:25.568Z,10.7
2023-02-05T22:10:27.528Z,9.4
2023-02-05T22:13:29.493Z,9.6
2023-02-05T22:16:31.490Z,9.9
2023-02-05T22:19:33.407Z,10
2023-02-05T22:22:35.362Z,9.7
2023-02-05T22:25:37.644Z,10.3
2023-02-05T22:28:39.414Z,10.9
2023-02-05T22:31:41.349Z,9.7
2023-02-05T22:34:43.693Z,9.4
2023-02-05T22:37:45.156Z,10.1
2023-02-05T22:40:47.127Z,8.8
2023-02-05T22:43:49.119Z,9.3
2023-02-05T22:46:51.036Z,10.6
2023-02-05T22:49:53.007Z,10.8
2023-02-05T22:52:54.964Z,10.5
2023-02-05T22:55:56.960Z,9.7
2023-02-05T22:59:00.823Z,9.3
2023-02-05T23:02:00.884Z,10.6
2023-02-05T23:05:02.828Z,12.1
2023-02-05T23:08:04.779Z,13.2
2023-02-05T23:11:06.736Z,13.2
2023-02-05T23:14:08.690Z,11.7
2023-02-05T23:17:10.681Z,13.5
2023-02-05T23:20:12.613Z,14.5
2023-02-05T23:23:14.571Z,13.9
2023-02-05T23:26:16.542Z,13.5
2023-02-05T23:29:18.503Z,13.3
2023-02-05T23:32:20.492Z,12.9
2023-02-05T23:35:22.419Z,11.8
2023-02-05T23:38:24.395Z,13.2
2023-02-05T23:41:26.340Z,11.9
2023-02-05T23:44:28.312Z,11.4
2023-02-05T23:47:30.283Z,12.1
2023-02-05T23:50:32.244Z,13.2
2023-02-05T23:53:34.204Z,11.7
2023-02-05T23:56:36.178Z,12.2
2023-02-05T23:59:38.117Z,12.2
